Terminal Aerodrome Forecast
Issued by NWS

Home | Current Version | Previous Version | Text Only | Print | Product List | Glossary On
Versions: 1 2 3 4 5 6 7 8 9 10 11 12 13 14 15 16 17
000
FTUS44 KLUB 301700
TAFCDS
TAF
KCDS 301723Z 3018/3118 16010KT P6SM SCT100
     FM302100 02013KT P6SM SCT050
     FM310300 01013KT P6SM OVC015
     FM311500 01009KT P6SM SCT150=

USA.gov is the U.S. government's official web portal to all federal, state and local government web resources and services.